Time;durP1;ratioP1;P1;durP2;ratioP2;P2;SDS_P1;SDS_P2;PMS_P1;PMS_P2;Temp;Humidity;BMP_temperature;BMP_pressure;BME280_temperature;BME280_humidity;BME280_pressure;Samples;Min_cycle;Max_cycle;Signal;HPM_P1;HPM_P2
2024/01/12 00:00:16;;;;;;;2.13;2.00;;;7.00;67.80;;;;;;5071845;28;20025;-72
2024/01/12 00:02:41;;;;;;;0.90;0.90;;;7.00;67.70;;;;;;5070417;28;20376;-73
2024/01/12 00:05:07;;;;;;;0.90;0.90;;;7.00;67.80;;;;;;5071613;28;20463;-73
2024/01/12 00:07:33;;;;;;;1.13;0.90;;;7.00;67.90;;;;;;5052590;28;20033;-73
2024/01/12 00:09:59;;;;;;;4.38;3.10;;;7.00;67.80;;;;;;5065421;28;20031;-72
2024/01/12 00:12:24;;;;;;;0.60;0.60;;;7.00;67.60;;;;;;5091813;28;20089;-74
2024/01/12 00:14:50;;;;;;;2.10;0.75;;;7.00;67.50;;;;;;5072370;28;20448;-71
2024/01/12 00:17:18;;;;;;;0.60;0.60;;;7.00;67.70;;;;;;5062356;28;20416;-72
2024/01/12 00:19:43;;;;;;;1.38;1.27;;;7.00;67.70;;;;;;5062647;28;20379;-72
2024/01/12 00:22:09;;;;;;;1.52;1.42;;;7.00;67.70;;;;;;5051763;28;20029;-73
2024/01/12 00:24:35;;;;;;;0.77;0.77;;;7.00;67.80;;;;;;5054284;28;20464;-73
2024/01/12 00:27:00;;;;;;;0.52;0.52;;;7.00;67.90;;;;;;5057726;28;20464;-73
2024/01/12 00:29:26;;;;;;;0.60;0.60;;;7.00;67.90;;;;;;5069484;28;20445;-73
2024/01/12 00:31:51;;;;;;;0.68;0.68;;;7.00;67.90;;;;;;5071331;28;20079;-73
2024/01/12 00:34:17;;;;;;;0.60;0.60;;;7.10;67.80;;;;;;5071591;28;20472;-74
2024/01/12 00:36:42;;;;;;;0.60;0.60;;;7.10;67.80;;;;;;5069931;28;20072;-73
2024/01/12 00:39:08;;;;;;;1.05;1.00;;;7.00;67.70;;;;;;5071181;28;20064;-71
2024/01/12 00:41:33;;;;;;;0.70;0.70;;;7.10;67.70;;;;;;5071227;28;20036;-74
2024/01/12 00:43:59;;;;;;;1.00;1.00;;;7.00;67.60;;;;;;5072525;28;20032;-73
2024/01/12 00:46:25;;;;;;;0.63;0.63;;;7.00;67.70;;;;;;5075150;28;20442;-73
2024/01/12 00:48:50;;;;;;;0.63;0.63;;;7.10;67.80;;;;;;5075244;28;20496;-73
2024/01/12 00:51:16;;;;;;;1.30;1.20;;;7.00;67.70;;;;;;5075298;28;20406;-73
2024/01/12 00:53:41;;;;;;;0.93;0.93;;;7.00;67.60;;;;;;5074940;28;20325;-73
2024/01/12 00:56:07;;;;;;;1.00;0.98;;;7.00;67.70;;;;;;5074978;28;20021;-73
2024/01/12 00:58:33;;;;;;;0.93;0.93;;;7.00;67.70;;;;;;5074993;28;20033;-73
2024/01/12 01:00:59;;;;;;;1.50;1.40;;;7.00;67.70;;;;;;5074854;28;20472;-73
2024/01/12 01:03:24;;;;;;;0.70;0.70;;;7.00;67.80;;;;;;5072759;28;20028;-74
2024/01/12 01:05:50;;;;;;;0.93;0.93;;;7.00;67.70;;;;;;5073633;28;20494;-73
2024/01/12 01:08:16;;;;;;;0.98;0.98;;;7.00;67.70;;;;;;5075195;28;20050;-73
2024/01/12 01:10:43;;;;;;;0.50;0.50;;;7.00;67.60;;;;;;5077727;28;20028;-73
2024/01/12 01:13:09;;;;;;;1.30;1.20;;;7.00;67.60;;;;;;5070733;28;20032;-73
2024/01/12 01:15:35;;;;;;;0.95;0.95;;;7.00;67.70;;;;;;5060474;28;20032;-73
2024/01/12 01:18:00;;;;;;;0.50;0.50;;;7.00;67.70;;;;;;5059281;28;20399;-74
2024/01/12 01:20:26;;;;;;;1.10;1.10;;;7.00;67.80;;;;;;5068248;28;20028;-73
2024/01/12 01:22:51;;;;;;;1.38;1.25;;;7.00;67.70;;;;;;5071271;28;20455;-74
2024/01/12 01:25:18;;;;;;;1.67;1.58;;;7.00;67.70;;;;;;5057391;28;20476;-73
2024/01/12 01:27:44;;;;;;;1.00;1.00;;;7.00;67.70;;;;;;5064135;28;20028;-73
2024/01/12 01:30:10;;;;;;;1.75;1.65;;;7.10;67.60;;;;;;5056652;28;20349;-73
2024/01/12 01:32:35;;;;;;;0.60;0.60;;;7.00;67.60;;;;;;5063100;28;21290;-73
2024/01/12 01:35:01;;;;;;;0.90;0.90;;;7.00;67.60;;;;;;5056739;28;20079;-74
2024/01/12 01:37:26;;;;;;;0.60;0.60;;;7.00;67.70;;;;;;5061100;28;20543;-73
2024/01/12 01:39:52;;;;;;;0.75;0.75;;;7.00;67.60;;;;;;5063025;28;20424;-73
2024/01/12 01:42:18;;;;;;;2.13;1.98;;;7.00;67.60;;;;;;5051579;28;20033;-73
2024/01/12 01:44:43;;;;;;;0.93;0.93;;;7.00;67.60;;;;;;5063919;28;20032;-73
2024/01/12 01:47:10;;;;;;;2.17;2.00;;;7.00;67.40;;;;;;5055429;28;20110;-74
2024/01/12 01:49:36;;;;;;;1.10;1.10;;;7.00;67.50;;;;;;5063387;28;20032;-73
2024/01/12 01:52:03;;;;;;;0.65;0.65;;;7.00;67.60;;;;;;5070031;28;20468;-74
2024/01/12 01:54:29;;;;;;;0.70;0.70;;;7.00;67.70;;;;;;5067625;28;20534;-74
2024/01/12 01:56:55;;;;;;;0.70;0.70;;;7.00;67.70;;;;;;5067525;28;20032;-74
2024/01/12 01:59:21;;;;;;;0.95;0.95;;;7.00;67.60;;;;;;5055049;28;20039;-73
2024/01/12 02:01:47;;;;;;;0.80;0.80;;;7.00;67.40;;;;;;5068006;28;20036;-73
2024/01/12 02:04:13;;;;;;;0.70;0.70;;;6.90;67.50;;;;;;5067671;28;20056;-73
2024/01/12 02:06:39;;;;;;;3.97;2.20;;;6.90;67.70;;;;;;5068609;28;20115;-73
2024/01/12 02:09:05;;;;;;;1.30;1.20;;;7.00;67.70;;;;;;5057267;28;20104;-73
2024/01/12 02:11:31;;;;;;;2.10;1.35;;;6.90;67.80;;;;;;5064723;28;20082;-73
2024/01/12 02:13:56;;;;;;;1.05;1.05;;;7.00;67.70;;;;;;5065147;28;20028;-73
2024/01/12 02:16:22;;;;;;;0.60;0.60;;;7.00;67.50;;;;;;5067195;28;20056;-73
2024/01/12 02:18:47;;;;;;;0.60;0.60;;;7.00;67.60;;;;;;5061908;28;20052;-73
2024/01/12 02:21:13;;;;;;;1.65;1.55;;;6.90;67.70;;;;;;5063050;28;20421;-73
2024/01/12 02:23:38;;;;;;;1.30;1.27;;;6.90;67.60;;;;;;5062202;28;20024;-73
2024/01/12 02:26:04;;;;;;;1.00;1.00;;;6.90;67.60;;;;;;5062944;28;20032;-73
2024/01/12 02:28:31;;;;;;;1.55;1.45;;;6.90;67.60;;;;;;5066086;28;20041;-73
2024/01/12 02:30:57;;;;;;;1.05;1.05;;;6.90;67.60;;;;;;5058709;28;20029;-73
2024/01/12 02:33:23;;;;;;;0.95;0.95;;;6.90;67.70;;;;;;5054560;28;20408;-73
2024/01/12 02:35:49;;;;;;;0.70;0.70;;;6.90;67.70;;;;;;5059006;28;20193;-72
2024/01/12 02:38:14;;;;;;;2.25;1.55;;;6.90;67.70;;;;;;5058679;28;20109;-73
2024/01/12 02:40:40;;;;;;;0.60;0.60;;;6.90;67.60;;;;;;5052390;28;20021;-73
2024/01/12 02:43:06;;;;;;;0.73;0.73;;;6.90;67.90;;;;;;5059911;28;20251;-73
2024/01/12 02:45:31;;;;;;;1.00;1.00;;;6.90;67.90;;;;;;5053070;28;20036;-73
2024/01/12 02:47:57;;;;;;;0.60;0.60;;;6.90;67.80;;;;;;5053095;28;20029;-73
2024/01/12 02:50:22;;;;;;;1.05;1.05;;;6.90;67.70;;;;;;5062370;28;20123;-73
2024/01/12 02:52:48;;;;;;;0.65;0.65;;;6.80;67.40;;;;;;5071302;28;20079;-73
2024/01/12 02:55:13;;;;;;;0.60;0.60;;;6.80;67.60;;;;;;5072721;28;20031;-73
2024/01/12 02:57:39;;;;;;;0.80;0.80;;;6.80;67.70;;;;;;5072874;28;20031;-73
2024/01/12 03:00:05;;;;;;;3.35;1.48;;;6.80;67.70;;;;;;5072629;28;20427;-74
2024/01/12 03:02:31;;;;;;;1.45;1.35;;;6.80;67.90;;;;;;5062414;28;20031;-73
2024/01/12 03:04:56;;;;;;;0.70;0.70;;;6.80;68.00;;;;;;5052542;28;20458;-73
2024/01/12 03:07:22;;;;;;;0.93;0.93;;;6.80;67.80;;;;;;5052463;28;20037;-73
2024/01/12 03:09:47;;;;;;;1.05;1.05;;;6.80;67.80;;;;;;5062169;28;20023;-73
2024/01/12 03:12:13;;;;;;;1.65;1.50;;;6.80;67.90;;;;;;5092972;28;20463;-74
2024/01/12 03:14:38;;;;;;;0.70;0.70;;;6.90;67.80;;;;;;5092463;28;20027;-73
2024/01/12 03:17:04;;;;;;;4.75;2.17;;;6.80;67.70;;;;;;5091450;28;20036;-73
2024/01/12 03:19:29;;;;;;;2.58;2.05;;;6.80;67.60;;;;;;5092370;28;20148;-73
2024/01/12 03:21:55;;;;;;;1.08;1.08;;;6.80;67.50;;;;;;5092406;28;20032;-73
2024/01/12 03:24:20;;;;;;;1.05;1.05;;;6.70;67.70;;;;;;5093622;28;20484;-73
2024/01/12 03:26:46;;;;;;;1.75;1.65;;;6.70;67.90;;;;;;5093682;28;20036;-73
2024/01/12 03:29:12;;;;;;;1.55;1.45;;;6.70;67.90;;;;;;5071000;28;20032;-73
2024/01/12 03:31:39;;;;;;;2.33;2.13;;;6.70;67.90;;;;;;5069128;28;20094;-73
2024/01/12 03:34:04;;;;;;;1.08;1.08;;;6.70;67.70;;;;;;5070322;28;20039;-72
2024/01/12 03:36:30;;;;;;;0.70;0.70;;;6.70;67.60;;;;;;5051627;28;20128;-72
2024/01/12 03:38:55;;;;;;;2.90;2.70;;;6.70;67.80;;;;;;5051299;28;20127;-72
2024/01/12 03:41:21;;;;;;;1.88;1.77;;;6.70;67.90;;;;;;5052879;28;20501;-72
2024/01/12 03:43:47;;;;;;;0.93;0.93;;;6.70;68.00;;;;;;5052649;28;20021;-72
2024/01/12 03:46:12;;;;;;;0.98;0.98;;;6.70;67.80;;;;;;5053395;28;20033;-71
2024/01/12 03:48:40;;;;;;;1.00;1.00;;;6.70;67.90;;;;;;5072548;28;20048;-71
2024/01/12 03:51:06;;;;;;;0.93;0.93;;;6.70;67.90;;;;;;5071015;28;20024;-72
2024/01/12 03:53:31;;;;;;;0.93;0.93;;;6.70;67.80;;;;;;5072566;28;20075;-72
2024/01/12 03:55:57;;;;;;;1.02;1.02;;;6.60;67.80;;;;;;5071180;28;20372;-72
2024/01/12 03:58:22;;;;;;;0.65;0.65;;;6.60;68.00;;;;;;5072848;28;20040;-72
2024/01/12 04:00:48;;;;;;;1.48;1.38;;;6.70;68.10;;;;;;5072233;28;20028;-72
2024/01/12 04:03:14;;;;;;;0.95;0.95;;;6.60;67.80;;;;;;5072753;28;20387;-72
2024/01/12 04:05:39;;;;;;;1.10;1.10;;;6.60;67.50;;;;;;5070597;28;20055;-72
2024/01/12 04:08:05;;;;;;;0.60;0.60;;;6.60;67.80;;;;;;5058573;28;20033;-72
2024/01/12 04:10:31;;;;;;;1.35;1.30;;;6.60;68.10;;;;;;5066227;28;20029;-71
2024/01/12 04:12:57;;;;;;;0.77;0.77;;;6.60;67.90;;;;;;5051287;28;20427;-72
2024/01/12 04:15:22;;;;;;;3.10;1.38;;;6.60;68.10;;;;;;5050978;28;20484;-72
2024/01/12 04:17:48;;;;;;;0.60;0.60;;;6.60;68.00;;;;;;5050623;28;20029;-71
2024/01/12 04:20:14;;;;;;;1.35;1.25;;;6.70;67.90;;;;;;5050757;28;20056;-71
2024/01/12 04:22:39;;;;;;;0.73;0.73;;;6.70;67.80;;;;;;5050080;28;20088;-72
2024/01/12 04:25:05;;;;;;;0.50;0.50;;;6.60;67.80;;;;;;5056040;28;20381;-71
2024/01/12 04:27:31;;;;;;;0.80;0.80;;;6.60;68.00;;;;;;5053724;28;20033;-72
2024/01/12 04:29:56;;;;;;;0.75;0.75;;;6.70;68.00;;;;;;5055083;28;20032;-71
2024/01/12 04:32:22;;;;;;;0.50;0.50;;;6.70;68.00;;;;;;5069394;28;20024;-72
2024/01/12 04:34:47;;;;;;;0.68;0.68;;;6.60;67.80;;;;;;5072078;28;20020;-72
2024/01/12 04:37:13;;;;;;;0.70;0.70;;;6.60;67.70;;;;;;5072535;28;20036;-71
2024/01/12 04:39:42;;;;;;;0.85;0.85;;;6.60;67.60;;;;;;5072089;28;20028;-72
2024/01/12 04:42:07;;;;;;;0.90;0.90;;;6.60;67.60;;;;;;5070811;28;20024;-71
2024/01/12 04:44:33;;;;;;;0.85;0.85;;;6.50;67.40;;;;;;5072037;28;20024;-72
2024/01/12 04:46:59;;;;;;;1.13;1.13;;;6.50;67.40;;;;;;5072167;28;20036;-71
2024/01/12 04:49:24;;;;;;;2.30;1.67;;;6.50;67.70;;;;;;5072013;28;20037;-71
2024/01/12 04:51:50;;;;;;;1.05;1.05;;;6.40;67.80;;;;;;5059916;28;20469;-72
2024/01/12 04:54:16;;;;;;;1.05;1.05;;;6.40;67.70;;;;;;5070348;28;20037;-71
2024/01/12 04:56:42;;;;;;;0.90;0.90;;;6.40;67.80;;;;;;5066739;28;20427;-71
2024/01/12 04:59:07;;;;;;;0.85;0.82;;;6.40;67.90;;;;;;5051939;28;20025;-71
2024/01/12 05:01:33;;;;;;;1.02;1.02;;;6.40;67.70;;;;;;5050936;28;20025;-71
2024/01/12 05:03:58;;;;;;;0.82;0.82;;;6.40;67.90;;;;;;5052448;28;20089;-71
2024/01/12 05:06:24;;;;;;;0.60;0.60;;;6.40;67.90;;;;;;5062951;28;20038;-71
2024/01/12 05:08:50;;;;;;;0.82;0.82;;;6.40;68.00;;;;;;5060568;28;20462;-72
2024/01/12 05:11:15;;;;;;;2.53;2.33;;;6.40;67.90;;;;;;5083944;28;20465;-71
2024/01/12 05:13:41;;;;;;;0.70;0.70;;;6.40;67.90;;;;;;5059261;28;20107;-71
2024/01/12 05:16:06;;;;;;;4.53;3.08;;;6.40;67.60;;;;;;5071592;28;20391;-71
2024/01/12 05:18:32;;;;;;;1.08;1.05;;;6.40;67.60;;;;;;5062648;28;20044;-71
2024/01/12 05:20:57;;;;;;;1.23;1.15;;;6.30;68.00;;;;;;5050764;28;20020;-71
2024/01/12 05:23:23;;;;;;;0.70;0.70;;;6.30;68.10;;;;;;5051117;28;20086;-71
2024/01/12 05:25:49;;;;;;;0.70;0.70;;;6.40;68.20;;;;;;5050641;28;20032;-72
2024/01/12 05:28:14;;;;;;;0.98;0.98;;;6.40;68.30;;;;;;5052196;28;20045;-71
2024/01/12 05:30:40;;;;;;;0.93;0.93;;;6.40;68.40;;;;;;5060513;28;20031;-71
2024/01/12 05:33:05;;;;;;;0.70;0.70;;;6.50;68.40;;;;;;5074568;28;20075;-71
2024/01/12 05:35:31;;;;;;;0.50;0.50;;;6.50;68.40;;;;;;5075249;28;20071;-73
2024/01/12 05:37:56;;;;;;;0.60;0.60;;;6.50;68.20;;;;;;5075213;28;20437;-72
2024/01/12 05:40:22;;;;;;;0.60;0.60;;;6.60;68.20;;;;;;5074015;28;20023;-72
2024/01/12 05:42:47;;;;;;;0.90;0.90;;;6.50;68.10;;;;;;5073076;28;20058;-72
2024/01/12 05:45:13;;;;;;;0.50;0.50;;;6.50;68.10;;;;;;5073955;28;20035;-73
2024/01/12 05:47:38;;;;;;;1.02;1.02;;;6.50;68.20;;;;;;5061519;28;20033;-73
2024/01/12 05:50:06;;;;;;;0.95;0.95;;;6.50;68.10;;;;;;5056205;28;20033;-72
2024/01/12 05:52:33;;;;;;;0.60;0.60;;;6.60;68.10;;;;;;5060868;28;20029;-72
2024/01/12 05:54:59;;;;;;;0.70;0.70;;;6.60;68.10;;;;;;5067917;28;20028;-72
2024/01/12 05:57:24;;;;;;;0.70;0.70;;;6.60;68.20;;;;;;5061826;28;20037;-73
2024/01/12 05:59:51;;;;;;;0.80;0.80;;;6.60;68.10;;;;;;5062535;28;20025;-72
2024/01/12 06:02:16;;;;;;;0.70;0.70;;;6.50;68.10;;;;;;5073876;28;20484;-72
2024/01/12 06:04:42;;;;;;;0.70;0.70;;;6.60;68.00;;;;;;5060207;28;20060;-73
2024/01/12 06:07:07;;;;;;;0.73;0.73;;;6.60;68.20;;;;;;5058360;28;20111;-73
2024/01/12 06:09:33;;;;;;;1.17;1.15;;;6.60;68.00;;;;;;5064273;28;20039;-72
2024/01/12 06:11:58;;;;;;;1.55;1.45;;;6.60;68.10;;;;;;5066080;28;20044;-73
2024/01/12 06:14:24;;;;;;;0.63;0.63;;;6.60;68.10;;;;;;5065349;28;20500;-73
2024/01/12 06:16:50;;;;;;;0.70;0.70;;;6.60;68.10;;;;;;5066094;28;20036;-72
2024/01/12 06:19:15;;;;;;;1.15;1.15;;;6.50;68.10;;;;;;5053893;28;20072;-73
2024/01/12 06:21:41;;;;;;;0.60;0.60;;;6.60;68.20;;;;;;5063421;28;20032;-72
2024/01/12 06:24:08;;;;;;;0.98;0.98;;;6.60;68.20;;;;;;5059846;28;20104;-72
2024/01/12 06:26:33;;;;;;;0.85;0.85;;;6.60;68.30;;;;;;5071734;28;20154;-72
2024/01/12 06:28:59;;;;;;;0.60;0.60;;;6.70;68.20;;;;;;5060790;28;20532;-72
2024/01/12 06:31:30;;;;;;;0.65;0.65;;;6.70;68.10;;;;;;5065667;28;20114;-72
2024/01/12 06:33:55;;;;;;;0.60;0.60;;;6.70;68.10;;;;;;5056016;28;20020;-72
2024/01/12 06:36:21;;;;;;;0.70;0.70;;;6.60;68.00;;;;;;5062277;28;20440;-72
2024/01/12 06:38:46;;;;;;;0.80;0.80;;;6.70;68.10;;;;;;5077317;28;20032;-72
2024/01/12 06:41:11;;;;;;;0.60;0.60;;;6.70;68.20;;;;;;5075648;28;20036;-72
2024/01/12 06:43:37;;;;;;;0.60;0.60;;;6.70;68.10;;;;;;5067852;28;20032;-72
2024/01/12 06:46:06;;;;;;;0.70;0.70;;;6.70;68.10;;;;;;5062123;28;20391;-72
2024/01/12 06:48:31;;;;;;;0.60;0.60;;;6.70;68.10;;;;;;5066471;28;20111;-72
2024/01/12 06:50:57;;;;;;;0.50;0.50;;;6.70;68.10;;;;;;5072242;28;20108;-72
2024/01/12 06:53:22;;;;;;;0.73;0.73;;;6.70;68.10;;;;;;5065335;28;20044;-72
2024/01/12 06:55:48;;;;;;;1.77;1.48;;;6.70;68.10;;;;;;5070349;28;20427;-72
2024/01/12 06:58:13;;;;;;;1.02;0.95;;;6.70;68.10;;;;;;5073342;28;20044;-72
2024/01/12 07:00:39;;;;;;;0.80;0.80;;;6.70;68.10;;;;;;5069243;28;20471;-72
2024/01/12 07:03:06;;;;;;;0.70;0.70;;;6.70;68.20;;;;;;5059832;28;20578;-72
2024/01/12 07:05:31;;;;;;;1.42;0.88;;;6.70;68.10;;;;;;5056814;28;20020;-72
2024/01/12 07:07:57;;;;;;;0.60;0.60;;;6.70;67.90;;;;;;5065010;28;20096;-72
2024/01/12 07:10:22;;;;;;;0.60;0.60;;;6.70;67.80;;;;;;5052899;28;20032;-72
2024/01/12 07:12:51;;;;;;;0.77;0.77;;;6.70;67.80;;;;;;5058167;28;20471;-72
2024/01/12 07:15:17;;;;;;;0.47;0.47;;;6.70;67.90;;;;;;5070643;28;20036;-72
2024/01/12 07:17:43;;;;;;;0.57;0.57;;;6.70;67.70;;;;;;5073081;28;20395;-72
2024/01/12 07:20:10;;;;;;;2.90;2.53;;;6.70;67.90;;;;;;5070242;28;20031;-72
2024/01/12 07:22:36;;;;;;;1.58;1.33;;;6.70;67.80;;;;;;5067774;28;20622;-72
2024/01/12 07:25:01;;;;;;;0.60;0.60;;;6.70;68.00;;;;;;5051372;28;20036;-72
2024/01/12 07:27:27;;;;;;;0.60;0.60;;;6.70;68.00;;;;;;5050785;28;20037;-72
2024/01/12 07:29:52;;;;;;;0.70;0.70;;;6.70;68.10;;;;;;5065174;28;20082;-72
2024/01/12 07:32:18;;;;;;;0.57;0.57;;;6.70;68.10;;;;;;5071321;28;20182;-72
2024/01/12 07:34:43;;;;;;;0.80;0.80;;;6.70;68.10;;;;;;5069747;28;20025;-72
2024/01/12 07:37:09;;;;;;;0.60;0.60;;;6.70;67.90;;;;;;5072428;28;20040;-72
2024/01/12 07:39:34;;;;;;;0.60;0.60;;;6.70;67.90;;;;;;5072595;28;20032;-72
2024/01/12 07:42:00;;;;;;;0.90;0.90;;;6.70;67.90;;;;;;5055766;28;20037;-72
2024/01/12 07:44:25;;;;;;;0.93;0.90;;;6.70;67.90;;;;;;5052407;28;20056;-72
2024/01/12 07:46:51;;;;;;;0.60;0.60;;;6.70;68.00;;;;;;5050957;28;20036;-72
2024/01/12 07:49:16;;;;;;;0.60;0.60;;;6.70;68.20;;;;;;5052323;28;20025;-72
2024/01/12 07:51:42;;;;;;;1.00;1.00;;;6.70;68.20;;;;;;5052727;28;20036;-72
2024/01/12 07:54:08;;;;;;;4.57;1.92;;;6.70;68.10;;;;;;5053860;28;20029;-72
2024/01/12 07:56:34;;;;;;;1.63;1.00;;;6.70;68.10;;;;;;5052108;28;20357;-72
2024/01/12 07:59:00;;;;;;;0.60;0.60;;;6.70;68.10;;;;;;5050724;28;20025;-72
2024/01/12 08:01:25;;;;;;;0.70;0.70;;;6.70;68.20;;;;;;5051464;28;20214;-72
2024/01/12 08:03:51;;;;;;;1.67;1.55;;;6.70;68.10;;;;;;5052238;28;20021;-72
2024/01/12 08:06:16;;;;;;;0.65;0.65;;;6.70;68.10;;;;;;5051127;28;20036;-73
2024/01/12 08:08:43;;;;;;;0.88;0.88;;;6.70;68.10;;;;;;5052577;28;20118;-72
2024/01/12 08:11:08;;;;;;;0.70;0.70;;;6.70;68.20;;;;;;5051673;28;20036;-72
2024/01/12 08:13:34;;;;;;;1.13;1.13;;;6.70;68.20;;;;;;5052156;28;20025;-72
2024/01/12 08:16:00;;;;;;;1.10;1.10;;;6.70;68.10;;;;;;5052005;28;20033;-72
2024/01/12 08:18:26;;;;;;;0.60;0.60;;;6.70;68.20;;;;;;5070504;28;20032;-72
2024/01/12 08:20:51;;;;;;;0.70;0.70;;;6.70;68.30;;;;;;5053209;28;20098;-72
2024/01/12 08:23:17;;;;;;;0.60;0.60;;;6.70;68.10;;;;;;5052155;28;20116;-72
2024/01/12 08:25:42;;;;;;;0.50;0.50;;;6.70;68.10;;;;;;5054932;28;20515;-72
2024/01/12 08:28:09;;;;;;;0.80;0.80;;;6.70;68.30;;;;;;5052523;28;20043;-72
2024/01/12 08:30:35;;;;;;;1.08;1.08;;;6.80;68.40;;;;;;5051164;28;20569;-72
2024/01/12 08:33:00;;;;;;;1.00;1.00;;;6.80;68.30;;;;;;5052380;28;20033;-72
2024/01/12 08:35:26;;;;;;;0.57;0.57;;;6.80;68.40;;;;;;5051977;28;20040;-72
2024/01/12 08:37:52;;;;;;;0.70;0.70;;;6.80;68.30;;;;;;5050178;28;20090;-72
2024/01/12 08:40:18;;;;;;;0.70;0.70;;;6.80;68.40;;;;;;5052663;28;20025;-72
2024/01/12 08:42:44;;;;;;;0.60;0.60;;;6.80;68.30;;;;;;5065982;28;20464;-72
2024/01/12 08:45:09;;;;;;;0.80;0.80;;;6.90;68.50;;;;;;5052720;28;20096;-72
2024/01/12 08:47:35;;;;;;;0.60;0.60;;;6.90;68.50;;;;;;5051996;28;20345;-72
2024/01/12 08:50:00;;;;;;;4.95;1.58;;;6.90;68.50;;;;;;5066653;28;20045;-72
2024/01/12 08:52:27;;;;;;;6.00;3.75;;;7.00;68.40;;;;;;5069977;28;20037;-72
2024/01/12 08:54:53;;;;;;;2.03;1.33;;;6.90;68.20;;;;;;5071940;28;20116;-72
2024/01/12 08:57:18;;;;;;;0.80;0.80;;;6.90;68.30;;;;;;5060967;28;20108;-72
2024/01/12 08:59:44;;;;;;;0.75;0.75;;;7.00;68.50;;;;;;5052008;28;20032;-72
2024/01/12 09:02:09;;;;;;;3.67;2.33;;;7.00;68.30;;;;;;5050595;28;20082;-73
2024/01/12 09:04:35;;;;;;;0.75;0.75;;;7.00;68.20;;;;;;5072941;28;20078;-73
2024/01/12 09:07:00;;;;;;;0.60;0.60;;;7.00;68.30;;;;;;5075995;28;20032;-72
2024/01/12 09:09:26;;;;;;;0.80;0.80;;;7.00;68.30;;;;;;5073866;28;20047;-73
2024/01/12 09:11:52;;;;;;;0.50;0.50;;;7.00;68.30;;;;;;5074493;28;20064;-73
2024/01/12 09:14:17;;;;;;;0.73;0.73;;;7.00;68.30;;;;;;5072783;28;20391;-73
2024/01/12 09:16:43;;;;;;;0.73;0.73;;;7.00;68.40;;;;;;5070628;28;20077;-73
2024/01/12 09:19:09;;;;;;;1.27;1.17;;;7.00;68.30;;;;;;5074190;28;20024;-73
2024/01/12 09:21:34;;;;;;;0.90;0.90;;;7.00;68.50;;;;;;5074264;28;20434;-73
2024/01/12 09:24:00;;;;;;;1.50;1.40;;;7.00;68.50;;;;;;5068846;28;20023;-72
2024/01/12 09:26:26;;;;;;;0.60;0.60;;;7.00;68.40;;;;;;5054035;28;20105;-73
2024/01/12 09:28:51;;;;;;;0.65;0.65;;;7.10;68.30;;;;;;5053989;28;20033;-73
2024/01/12 09:31:17;;;;;;;0.70;0.70;;;7.00;68.20;;;;;;5071347;28;20479;-72
2024/01/12 09:33:42;;;;;;;0.60;0.60;;;7.10;68.50;;;;;;5074116;28;20036;-72
2024/01/12 09:36:08;;;;;;;0.80;0.80;;;7.10;68.60;;;;;;5071581;28;20056;-73
2024/01/12 09:38:33;;;;;;;0.80;0.80;;;7.10;68.50;;;;;;5073823;28;20064;-73
2024/01/12 09:41:02;;;;;;;0.82;0.82;;;7.10;68.20;;;;;;5066639;28;20021;-73
2024/01/12 09:43:29;;;;;;;0.93;0.93;;;7.10;68.20;;;;;;5086080;28;20033;-73
2024/01/12 09:46:00;;;;;;;0.60;0.60;;;7.20;68.20;;;;;;5055082;28;20044;-73
2024/01/12 09:48:27;;;;;;;0.93;0.93;;;7.10;68.20;;;;;;5053963;28;20045;-74
2024/01/12 09:50:55;;;;;;;1.27;1.25;;;7.20;68.60;;;;;;5053704;28;20524;-73
2024/01/12 09:53:21;;;;;;;0.70;0.70;;;7.20;68.60;;;;;;5053418;28;20128;-73
2024/01/12 09:55:47;;;;;;;1.17;1.13;;;7.20;68.50;;;;;;5053521;28;20554;-73
2024/01/12 09:58:13;;;;;;;0.80;0.80;;;7.20;68.20;;;;;;5035604;28;20033;-74
2024/01/12 10:00:41;;;;;;;0.80;0.80;;;7.20;68.20;;;;;;5053380;28;20362;-74
2024/01/12 10:03:09;;;;;;;1.55;1.25;;;7.20;68.10;;;;;;5053212;28;20112;-73
2024/01/12 10:05:37;;;;;;;0.77;0.77;;;7.20;68.30;;;;;;5092675;28;20047;-72
2024/01/12 10:08:09;;;;;;;0.82;0.82;;;7.20;67.90;;;;;;5083656;28;20028;-72
2024/01/12 10:10:34;;;;;;;0.80;0.80;;;7.10;68.00;;;;;;5073500;28;20044;-73
2024/01/12 10:13:03;;;;;;;1.23;1.02;;;7.10;68.30;;;;;;5072991;28;20081;-73
2024/01/12 10:15:32;;;;;;;1.02;1.02;;;7.10;68.20;;;;;;5087676;28;20509;-73
2024/01/12 10:17:58;;;;;;;0.60;0.60;;;7.10;68.20;;;;;;5093537;28;20119;-73
2024/01/12 10:20:23;;;;;;;0.70;0.70;;;7.10;68.20;;;;;;5069226;28;20734;-72
2024/01/12 10:22:58;;;;;;;1.05;1.05;;;7.10;68.10;;;;;;5056494;28;20052;-73
2024/01/12 10:25:24;;;;;;;0.60;0.60;;;7.10;68.00;;;;;;5059327;28;20037;-73
2024/01/12 10:27:59;;;;;;;1.90;1.38;;;7.10;68.10;;;;;;5086631;28;20078;-73
2024/01/12 10:30:24;;;;;;;0.50;0.50;;;7.10;68.10;;;;;;5076306;28;20032;-73
2024/01/12 10:32:53;;;;;;;0.80;0.80;;;7.10;68.10;;;;;;5090686;28;20020;-73
2024/01/12 10:35:20;;;;;;;0.60;0.60;;;7.10;68.30;;;;;;5074119;28;20105;-73
2024/01/12 10:37:47;;;;;;;1.17;1.17;;;7.10;68.30;;;;;;5073884;28;20028;-73
2024/01/12 10:40:16;;;;;;;1.05;1.05;;;7.10;68.20;;;;;;5040584;28;20499;-73
2024/01/12 10:42:48;;;;;;;0.70;0.70;;;7.10;68.30;;;;;;5055894;28;20490;-73
2024/01/12 10:45:21;;;;;;;0.60;0.60;;;7.10;68.20;;;;;;5074120;28;20111;-73
2024/01/12 10:47:53;;;;;;;0.65;0.65;;;7.10;68.60;;;;;;5073628;28;20052;-73
2024/01/12 10:50:22;;;;;;;0.90;0.90;;;7.20;68.70;;;;;;5055575;28;20492;-73
2024/01/12 10:53:14;;;;;;;1.45;1.35;;;7.20;68.60;;;;;;5077399;28;20020;-73
2024/01/12 10:55:48;;;;;;;0.60;0.60;;;7.30;68.60;;;;;;5061976;28;20123;-73
2024/01/12 10:58:16;;;;;;;0.60;0.60;;;7.30;68.50;;;;;;5055757;28;20471;-73
2024/01/12 11:00:43;;;;;;;0.60;0.60;;;7.30;68.70;;;;;;5072515;28;20487;-73
2024/01/12 11:03:10;;;;;;;0.60;0.60;;;7.40;68.60;;;;;;5073342;28;20379;-73
2024/01/12 11:05:37;;;;;;;0.65;0.65;;;7.50;68.10;;;;;;5073486;28;20052;-73
2024/01/12 11:08:09;;;;;;;0.82;0.82;;;7.50;68.00;;;;;;5055169;28;20041;-73
2024/01/12 11:10:35;;;;;;;1.05;1.05;;;7.50;68.30;;;;;;5072356;28;20036;-73
2024/01/12 11:13:01;;;;;;;0.65;0.65;;;7.50;67.90;;;;;;5071231;28;20036;-73
2024/01/12 11:15:27;;;;;;;2.58;1.85;;;7.60;68.10;;;;;;5055334;28;20056;-73
2024/01/12 11:17:53;;;;;;;1.00;0.98;;;7.60;68.50;;;;;;5073384;28;20037;-73
2024/01/12 11:20:20;;;;;;;0.90;0.88;;;7.60;68.70;;;;;;5074306;28;20034;-73
2024/01/12 11:22:48;;;;;;;0.60;0.60;;;7.70;68.50;;;;;;5073143;28;20031;-73
2024/01/12 11:25:15;;;;;;;1.65;1.55;;;7.70;68.20;;;;;;5072551;28;20032;-73
2024/01/12 11:27:42;;;;;;;0.80;0.80;;;7.70;68.00;;;;;;5073148;28;20028;-74
2024/01/12 11:30:10;;;;;;;0.57;0.57;;;7.70;68.10;;;;;;5071422;28;20047;-74
2024/01/12 11:32:37;;;;;;;0.90;0.90;;;7.70;67.70;;;;;;5072056;28;20468;-74
2024/01/12 11:35:19;;;;;;;0.80;0.80;;;7.70;67.90;;;;;;5053705;28;20480;-74
2024/01/12 11:38:02;;;;;;;1.27;1.17;;;7.70;67.60;;;;;;5085698;28;20060;-74
2024/01/12 11:40:28;;;;;;;0.85;0.85;;;7.70;68.00;;;;;;5091867;28;20406;-73
2024/01/12 11:42:54;;;;;;;0.90;0.73;;;7.60;68.30;;;;;;5085393;28;20111;-74
2024/01/12 11:45:20;;;;;;;1.25;0.90;;;7.70;68.30;;;;;;5071904;28;20108;-74
2024/01/12 11:47:48;;;;;;;1.30;1.20;;;7.70;68.10;;;;;;5053671;28;20119;-74
2024/01/12 11:50:17;;;;;;;0.98;0.95;;;7.70;67.70;;;;;;5071021;28;20052;-73
2024/01/12 11:52:42;;;;;;;0.95;0.95;;;7.60;67.90;;;;;;5052543;28;20055;-74
2024/01/12 11:55:10;;;;;;;0.55;0.55;;;7.60;67.70;;;;;;5070861;28;20028;-75
2024/01/12 11:57:37;;;;;;;3.80;2.05;;;7.60;67.60;;;;;;5053774;28;20048;-73
2024/01/12 12:00:05;;;;;;;0.75;0.75;;;7.50;68.00;;;;;;5053553;28;20028;-72
2024/01/12 12:02:31;;;;;;;0.60;0.60;;;7.50;68.30;;;;;;5053546;28;20028;-73
2024/01/12 12:04:57;;;;;;;1.45;1.08;;;7.50;68.20;;;;;;5053220;28;20078;-72
2024/01/12 12:07:26;;;;;;;0.85;0.85;;;7.50;68.10;;;;;;5072411;28;20044;-73
2024/01/12 12:09:53;;;;;;;0.77;0.77;;;7.50;68.00;;;;;;5071462;28;20024;-73
2024/01/12 12:12:22;;;;;;;1.00;1.00;;;7.50;67.80;;;;;;5072564;28;20028;-73
2024/01/12 12:15:04;;;;;;;1.70;1.60;;;7.40;67.80;;;;;;5091361;28;20559;-72
2024/01/12 12:17:31;;;;;;;0.50;0.50;;;7.30;67.80;;;;;;5091865;28;20498;-72
2024/01/12 12:19:57;;;;;;;2.78;2.28;;;7.20;67.90;;;;;;5088267;28;20387;-72
2024/01/12 12:22:24;;;;;;;0.80;0.80;;;7.20;68.00;;;;;;5090907;28;20024;-73
2024/01/12 12:24:50;;;;;;;1.77;1.65;;;7.20;68.30;;;;;;5091374;28;20361;-72
2024/01/12 12:27:17;;;;;;;1.58;1.33;;;7.20;68.40;;;;;;5087468;28;20032;-73
2024/01/12 12:29:44;;;;;;;1.38;1.23;;;7.20;68.60;;;;;;5053261;28;20063;-73
2024/01/12 12:32:14;;;;;;;0.90;0.90;;;7.20;68.60;;;;;;5071510;28;20056;-73
2024/01/12 12:34:40;;;;;;;0.80;0.80;;;7.20;68.40;;;;;;5087452;28;20032;-73
2024/01/12 12:37:11;;;;;;;0.60;0.60;;;7.20;68.20;;;;;;5091931;28;20073;-73
2024/01/12 12:39:37;;;;;;;0.70;0.70;;;7.10;67.90;;;;;;5074355;28;20066;-75
2024/01/12 12:42:06;;;;;;;0.50;0.50;;;7.00;67.70;;;;;;5096772;28;20032;-76
2024/01/12 12:44:32;;;;;;;0.70;0.70;;;7.00;67.70;;;;;;5095337;28;20025;-75
2024/01/12 12:46:59;;;;;;;2.08;1.73;;;7.10;68.00;;;;;;5096236;28;20075;-74
2024/01/12 12:49:51;;;;;;;0.70;0.70;;;7.10;68.30;;;;;;5095468;28;20177;-74
2024/01/12 12:52:16;;;;;;;1.00;1.00;;;7.20;68.70;;;;;;5091627;28;20109;-74